createdAt,value
2018-04-01T00:00:17.797Z,94.32
2018-04-01T00:01:17.699Z,93.99
2018-04-01T00:02:17.601Z,93.75
2018-04-01T00:03:17.539Z,94.42
2018-04-01T00:04:17.412Z,94.18
2018-04-01T00:05:17.309Z,94.42
2018-04-01T00:06:17.217Z,94.04
2018-04-01T00:07:17.117Z,93.94
2018-04-01T00:08:17.056Z,94.13
2018-04-01T00:09:16.924Z,93.84
2018-04-01T00:10:16.828Z,94.51
2018-04-01T00:11:16.732Z,94.42
2018-04-01T00:12:16.730Z,93.75
2018-04-01T00:13:16.570Z,93.94
2018-04-01T00:14:16.447Z,94.51
2018-04-01T00:15:16.387Z,94.42
2018-04-01T00:16:16.251Z,94.32
2018-04-01T00:17:16.146Z,94.70
2018-04-01T00:18:16.052Z,94.51
2018-04-01T00:19:15.984Z,94.42
2018-04-01T00:20:15.858Z,94.13
2018-04-01T00:21:15.760Z,94.79
2018-04-01T00:22:15.663Z,94.23
2018-04-01T00:23:15.568Z,94.04
2018-04-01T00:24:15.512Z,94.51
2018-04-01T00:25:15.371Z,94.60
2018-04-01T00:26:15.365Z,94.70
2018-04-01T00:27:15.175Z,94.60
2018-04-01T00:28:15.082Z,94.42
2018-04-01T00:29:15.015Z,94.23
2018-04-01T00:30:14.885Z,94.42
2018-04-01T00:31:14.791Z,93.75
2018-04-01T00:32:14.690Z,94.23
2018-04-01T00:33:14.690Z,94.51
2018-04-01T00:34:14.529Z,94.79
2018-04-01T00:35:14.399Z,94.13
2018-04-01T00:36:14.301Z,93.84
2018-04-01T00:37:14.205Z,94.51
2018-04-01T00:38:14.107Z,94.32
2018-04-01T00:39:14.043Z,93.75
2018-04-01T00:40:14.011Z,94.70
2018-04-01T00:41:13.814Z,94.70
2018-04-01T00:42:13.718Z,94.51
2018-04-01T00:43:13.636Z,94.32
2018-04-01T00:44:13.553Z,94.32
2018-04-01T00:45:13.422Z,94.89
2018-04-01T00:46:13.329Z,94.79
2018-04-01T00:47:13.333Z,94.32
2018-04-01T00:48:13.139Z,94.04
2018-04-01T00:49:13.068Z,94.79
2018-04-01T00:50:12.939Z,94.32
2018-04-01T00:51:12.842Z,94.32
2018-04-01T00:52:12.742Z,94.42
2018-04-01T00:53:12.646Z,93.94
2018-04-01T00:54:12.673Z,93.94
2018-04-01T00:55:12.452Z,94.42
2018-04-01T00:56:12.354Z,93.94
2018-04-01T00:57:12.256Z,94.42
2018-04-01T00:58:12.178Z,94.51
2018-04-01T00:59:12.092Z,93.94
2018-04-01T01:00:11.965Z,94.60
2018-04-01T01:01:11.884Z,94.23
2018-04-01T01:02:11.770Z,94.32
2018-04-01T01:03:11.928Z,93.75
2018-04-01T01:04:11.605Z,93.84
2018-04-01T01:05:11.475Z,94.13
2018-04-01T01:06:11.384Z,93.94
2018-04-01T01:07:11.283Z,93.75
2018-04-01T01:08:11.187Z,93.75
2018-04-01T01:09:11.210Z,93.94
2018-04-01T01:10:10.989Z,94.32
2018-04-01T01:11:10.893Z,93.75
2018-04-01T01:12:10.813Z,94.13
2018-04-01T01:13:10.700Z,93.94
2018-04-01T01:14:10.632Z,94.32
2018-04-01T01:15:10.503Z,94.13
2018-04-01T01:16:10.503Z,93.94
2018-04-01T01:17:10.309Z,93.94
2018-04-01T01:18:10.214Z,93.75
2018-04-01T01:19:10.146Z,93.75
2018-04-01T01:20:10.021Z,94.51
2018-04-01T01:21:09.923Z,94.60
2018-04-01T01:22:09.823Z,94.13
2018-04-01T01:23:09.819Z,94.51
2018-04-01T01:24:09.662Z,94.51
2018-04-01T01:25:09.533Z,93.46
2018-04-01T01:26:09.435Z,94.42
2018-04-01T01:27:09.340Z,94.13
2018-04-01T01:28:09.245Z,94.04
2018-04-01T01:29:09.176Z,94.32
2018-04-01T01:30:09.141Z,94.23
2018-04-01T01:31:08.950Z,94.13
2018-04-01T01:32:08.850Z,93.75
2018-04-01T01:33:08.754Z,94.32
2018-04-01T01:34:08.692Z,94.04
2018-04-01T01:35:08.560Z,94.13
2018-04-01T01:36:08.468Z,94.13
2018-04-01T01:37:08.364Z,94.23
2018-04-01T01:38:08.272Z,94.23
2018-04-01T01:39:08.203Z,94.23
2018-04-01T01:40:08.073Z,94.13
2018-04-01T01:41:07.975Z,94.04
2018-04-01T01:42:07.880Z,94.04
2018-04-01T01:43:07.783Z,94.23
2018-04-01T01:44:07.814Z,94.23
2018-04-01T01:45:07.590Z,94.13
2018-04-01T01:46:07.492Z,94.23
2018-04-01T01:47:07.394Z,94.32
2018-04-01T01:48:07.298Z,94.13
2018-04-01T01:49:07.202Z,93.84
2018-04-01T01:50:07.224Z,94.13
2018-04-01T01:51:07.007Z,94.08
2018-04-01T01:52:06.912Z,93.94
2018-04-01T01:53:06.810Z,94.23
2018-04-01T01:54:06.715Z,94.13
2018-04-01T01:55:06.647Z,94.13
2018-04-01T01:56:06.519Z,94.13
2018-04-01T01:57:06.422Z,94.04
2018-04-01T01:58:06.355Z,94.04
2018-04-01T01:59:06.228Z,94.04
2018-04-01T02:00:06.172Z,93.94
2018-04-01T02:01:06.035Z,93.80
2018-04-01T02:02:05.937Z,93.89
2018-04-01T02:03:05.840Z,93.80
2018-04-01T02:04:05.742Z,93.89
2018-04-01T02:05:05.679Z,94.56
2018-04-01T02:06:05.548Z,94.56
2018-04-01T02:07:05.451Z,94.37
2018-04-01T02:08:05.357Z,94.08
2018-04-01T02:09:05.256Z,94.37
2018-04-01T02:10:05.191Z,94.08
2018-04-01T02:11:05.071Z,94.46
2018-04-01T02:12:04.965Z,94.27
2018-04-01T02:13:04.867Z,94.37
2018-04-01T02:14:04.772Z,93.99
2018-04-01T02:15:04.704Z,94.08
2018-04-01T02:16:04.575Z,93.99
2018-04-01T02:17:04.477Z,94.18
2018-04-01T02:18:04.382Z,94.74
2018-04-01T02:19:04.282Z,94.56
2018-04-01T02:20:04.218Z,94.46
2018-04-01T02:21:04.086Z,94.56
2018-04-01T02:22:03.990Z,94.56
2018-04-01T02:23:03.892Z,94.46
2018-04-01T02:24:03.797Z,94.74
2018-04-01T02:25:03.728Z,94.56
2018-04-01T02:26:03.601Z,94.46
2018-04-01T02:27:03.505Z,94.74
2018-04-01T02:28:03.406Z,94.65
2018-04-01T02:29:03.309Z,94.65
2018-04-01T02:30:03.244Z,94.37
2018-04-01T02:31:03.114Z,94.37
2018-04-01T02:32:03.018Z,94.65
2018-04-01T02:33:02.925Z,94.46
2018-04-01T02:34:02.820Z,94.93
2018-04-01T02:35:02.757Z,94.93
2018-04-01T02:36:02.637Z,94.93
2018-04-01T02:37:02.532Z,94.93
2018-04-01T02:38:02.434Z,94.74
2018-04-01T02:39:02.333Z,94.08
2018-04-01T02:40:02.269Z,94.27
2018-04-01T02:41:02.141Z,94.65
2018-04-01T02:42:02.042Z,94.93
2018-04-01T02:43:01.949Z,95.21
2018-04-01T02:44:01.849Z,95.21
2018-04-01T02:45:01.778Z,95.21
2018-04-01T02:46:01.650Z,94.93
2018-04-01T02:47:01.552Z,94.84
2018-04-01T02:48:01.456Z,94.84
2018-04-01T02:49:01.355Z,95.31
2018-04-01T02:50:01.306Z,95.40
2018-04-01T02:51:01.170Z,95.21
2018-04-01T02:52:01.066Z,95.12
2018-04-01T02:53:00.963Z,95.21
2018-04-01T02:54:00.872Z,95.21
2018-04-01T02:55:00.807Z,95.21
2018-04-01T02:56:00.676Z,95.03
2018-04-01T02:57:00.575Z,95.03
2018-04-01T02:58:00.482Z,94.93
2018-04-01T02:59:00.383Z,94.65
2018-04-01T03:00:00.288Z,95.12
2018-04-01T03:01:00.217Z,94.84
2018-04-01T03:02:00.092Z,95.03
2018-04-01T03:02:59.991Z,95.03
2018-04-01T03:03:59.895Z,94.84
2018-04-01T03:04:59.794Z,94.84
2018-04-01T03:05:59.705Z,95.31
2018-04-01T03:06:59.632Z,95.40
2018-04-01T03:07:59.502Z,95.36
2018-04-01T03:08:59.406Z,95.17
2018-04-01T03:09:59.306Z,95.26
2018-04-01T03:10:59.242Z,95.36
2018-04-01T03:11:59.112Z,94.98
2018-04-01T03:12:59.012Z,94.98
2018-04-01T03:13:59.007Z,95.83
2018-04-01T03:14:58.819Z,95.93
2018-04-01T03:15:58.723Z,95.74
2018-04-01T03:16:58.650Z,95.64
2018-04-01T03:17:58.525Z,95.83
2018-04-01T03:18:58.437Z,96.02
2018-04-01T03:19:58.328Z,95.93
2018-04-01T03:20:58.322Z,95.45
2018-04-01T03:21:58.166Z,95.45
2018-04-01T03:22:58.035Z,95.74
2018-04-01T03:23:57.936Z,95.93
2018-04-01T03:24:57.840Z,95.74
2018-04-01T03:25:57.740Z,95.83
2018-04-01T03:26:57.697Z,95.74
2018-04-01T03:27:57.643Z,95.74
2018-04-01T03:28:57.452Z,95.74
2018-04-01T03:29:57.346Z,95.55
2018-04-01T03:30:57.271Z,95.45
2018-04-01T03:31:57.162Z,95.45
2018-04-01T03:32:57.086Z,95.45
2018-04-01T03:33:56.960Z,95.55
2018-04-01T03:34:56.954Z,95.55
2018-04-01T03:35:56.763Z,95.74
2018-04-01T03:36:56.668Z,95.55
2018-04-01T03:37:56.599Z,96.02
2018-04-01T03:38:56.470Z,96.31
2018-04-01T03:39:56.373Z,95.93
2018-04-01T03:40:56.273Z,96.31
2018-04-01T03:41:56.265Z,96.31
2018-04-01T03:42:56.080Z,96.31
2018-04-01T03:43:56.010Z,96.31
2018-04-01T03:44:55.879Z,95.83
2018-04-01T03:45:55.782Z,96.12
2018-04-01T03:46:55.684Z,96.02
2018-04-01T03:47:55.587Z,96.78
2018-04-01T03:48:55.623Z,96.78
2018-04-01T03:49:55.390Z,96.69
2018-04-01T03:50:55.292Z,96.40
2018-04-01T03:51:55.194Z,96.59
2018-04-01T03:52:55.095Z,96.21
2018-04-01T03:53:55.026Z,96.12
2018-04-01T03:54:54.897Z,96.59
2018-04-01T03:55:54.896Z,96.31
2018-04-01T03:56:54.706Z,96.78
2018-04-01T03:57:54.603Z,96.21
2018-04-01T03:58:54.548Z,96.12
2018-04-01T03:59:54.409Z,96.31
2018-04-01T04:00:54.311Z,96.12
2018-04-01T04:01:54.212Z,96.50
2018-04-01T04:02:54.206Z,96.59
2018-04-01T04:03:54.019Z,96.40
2018-04-01T04:04:53.949Z,96.54
2018-04-01T04:05:53.816Z,96.45
2018-04-01T04:06:53.720Z,96.83
2018-04-01T04:07:53.622Z,96.54
2018-04-01T04:08:53.523Z,96.92
2018-04-01T04:09:53.570Z,97.11
2018-04-01T04:10:53.326Z,97.01
2018-04-01T04:11:53.228Z,96.92
2018-04-01T04:12:53.132Z,97.01
2018-04-01T04:13:53.041Z,97.67
2018-04-01T04:14:52.935Z,97.11
2018-04-01T04:15:52.868Z,97.49
2018-04-01T04:16:52.834Z,97.49
2018-04-01T04:17:52.639Z,98.05
2018-04-01T04:18:52.544Z,98.05
2018-04-01T04:19:52.444Z,97.77
2018-04-01T04:20:52.379Z,98.14
2018-04-01T04:21:52.246Z,98.05
2018-04-01T04:22:52.149Z,97.67
2018-04-01T04:23:52.048Z,98.24
2018-04-01T04:24:51.952Z,98.14
2018-04-01T04:25:51.882Z,98.77
2018-04-01T04:26:51.752Z,98.77
2018-04-01T04:27:51.656Z,98.77
2018-04-01T04:28:51.557Z,98.96
2018-04-01T04:29:51.461Z,99.15
2018-04-01T04:30:51.393Z,98.86
2018-04-01T04:31:51.262Z,98.86
2018-04-01T04:32:51.164Z,98.96
2018-04-01T04:33:51.066Z,98.48
2018-04-01T04:34:50.968Z,98.10
2018-04-01T04:35:50.897Z,97.82
2018-04-01T04:36:50.771Z,97.16
2018-04-01T04:37:50.672Z,96.59
2018-04-01T04:38:50.572Z,96.88
2018-04-01T04:39:50.475Z,96.02
2018-04-01T04:40:50.382Z,95.93
2018-04-01T04:41:50.311Z,95.55
2018-04-01T04:42:50.182Z,95.74
2018-04-01T04:43:50.082Z,95.21
2018-04-01T04:44:49.981Z,95.07
2018-04-01T04:45:49.915Z,95.26
2018-04-01T04:46:49.786Z,95.45
2018-04-01T04:47:49.689Z,94.79
2018-04-01T04:48:49.593Z,94.89
2018-04-01T04:49:49.493Z,95.07
2018-04-01T04:50:49.396Z,94.84
2018-04-01T04:51:49.325Z,94.79
2018-04-01T04:52:49.198Z,95.07
2018-04-01T04:53:49.099Z,95.17
2018-04-01T04:54:49.002Z,94.70
2018-04-01T04:55:48.907Z,95.12
2018-04-01T04:56:48.837Z,94.98
2018-04-01T04:57:48.707Z,94.84
2018-04-01T04:58:48.611Z,95.07
2018-04-01T04:59:48.518Z,95.26
2018-04-01T05:00:48.415Z,95.26
2018-04-01T05:01:48.350Z,95.26
2018-04-01T05:02:48.218Z,94.70
2018-04-01T05:03:48.118Z,94.23
2018-04-01T05:04:48.049Z,94.60
2018-04-01T05:05:47.927Z,94.84
2018-04-01T05:06:47.860Z,94.08
2018-04-01T05:07:47.728Z,94.42
2018-04-01T05:08:47.627Z,94.70
2018-04-01T05:09:47.532Z,94.46
2018-04-01T05:10:47.434Z,94.56
2018-04-01T05:11:47.371Z,94.27
2018-04-01T05:12:47.239Z,94.56
2018-04-01T05:13:47.141Z,94.46
2018-04-01T05:14:47.045Z,94.74
2018-04-01T05:15:46.948Z,94.74
2018-04-01T05:16:46.877Z,94.65
2018-04-01T05:17:46.750Z,94.93
2018-04-01T05:18:46.653Z,94.08
2018-04-01T05:19:46.555Z,93.89
2018-04-01T05:20:46.456Z,94.56
2018-04-01T05:21:46.386Z,94.08
2018-04-01T05:22:46.263Z,94.27
2018-04-01T05:23:46.165Z,94.37
2018-04-01T05:24:46.065Z,94.08
2018-04-01T05:25:45.970Z,94.37
2018-04-01T05:26:45.903Z,94.37
2018-04-01T05:27:45.777Z,94.46
2018-04-01T05:28:45.678Z,94.08
2018-04-01T05:29:45.580Z,94.46
2018-04-01T05:30:45.481Z,94.46
2018-04-01T05:31:45.417Z,94.08
2018-04-01T05:32:45.285Z,94.27
2018-04-01T05:33:45.188Z,94.37
2018-04-01T05:34:45.091Z,94.56
2018-04-01T05:35:44.993Z,94.18
2018-04-01T05:36:44.929Z,94.18
2018-04-01T05:37:44.797Z,94.46
2018-04-01T05:38:44.701Z,94.27
2018-04-01T05:39:44.698Z,94.08
2018-04-01T05:40:44.504Z,94.27
2018-04-01T05:41:44.440Z,93.70
2018-04-01T05:42:44.310Z,94.18
2018-04-01T05:43:44.211Z,94.27
2018-04-01T05:44:44.112Z,93.70
2018-04-01T05:45:44.020Z,94.46
2018-04-01T05:46:43.952Z,93.80
2018-04-01T05:47:43.822Z,94.56
2018-04-01T05:48:43.726Z,94.08
2018-04-01T05:49:43.629Z,93.99
2018-04-01T05:50:43.532Z,94.27
2018-04-01T05:51:43.464Z,94.37
2018-04-01T05:52:43.337Z,94.27
2018-04-01T05:53:43.240Z,94.08
2018-04-01T05:54:43.143Z,94.27
2018-04-01T05:55:43.044Z,94.13
2018-04-01T05:56:42.952Z,94.56
2018-04-01T05:57:42.880Z,94.27
2018-04-01T05:58:42.751Z,94.37
2018-04-01T05:59:42.655Z,94.42
2018-04-01T06:00:42.655Z,94.42
2018-04-01T06:01:42.461Z,93.75
2018-04-01T06:02:42.397Z,94.23
2018-04-01T06:03:42.267Z,94.23
2018-04-01T06:04:42.169Z,93.94
2018-04-01T06:05:42.071Z,94.51
2018-04-01T06:06:41.980Z,93.84
2018-04-01T06:07:41.909Z,94.23
2018-04-01T06:08:41.777Z,94.04
2018-04-01T06:09:41.682Z,94.23
2018-04-01T06:10:41.589Z,94.23
2018-04-01T06:11:41.496Z,94.23
2018-04-01T06:12:41.429Z,93.84
2018-04-01T06:13:42.019Z,93.84
2018-04-01T06:14:41.196Z,94.13
2018-04-01T06:15:41.100Z,94.13
2018-04-01T06:16:41.002Z,94.13
2018-04-01T06:17:40.937Z,93.94
2018-04-01T06:18:40.807Z,94.13
2018-04-01T06:19:40.713Z,94.13
2018-04-01T06:20:40.616Z,93.75
2018-04-01T06:21:40.517Z,94.04
2018-04-01T06:22:40.453Z,93.94
2018-04-01T06:23:40.337Z,94.51
2018-04-01T06:24:40.226Z,94.13
2018-04-01T06:25:40.128Z,94.13
2018-04-01T06:26:40.034Z,94.32
2018-04-01T06:27:39.965Z,93.94
2018-04-01T06:28:39.838Z,93.75
2018-04-01T06:29:39.740Z,94.13
2018-04-01T06:30:39.646Z,94.04
2018-04-01T06:31:39.550Z,94.13
2018-04-01T06:32:39.482Z,94.32
2018-04-01T06:33:39.356Z,93.84
2018-04-01T06:34:39.261Z,94.13
2018-04-01T06:35:39.160Z,94.51
2018-04-01T06:36:39.349Z,94.04
2018-04-01T06:37:39.000Z,94.04
2018-04-01T06:38:38.871Z,94.23
2018-04-01T06:39:38.776Z,93.75
2018-04-01T06:40:38.685Z,94.51
2018-04-01T06:41:38.583Z,94.32
2018-04-01T06:42:38.537Z,94.13
2018-04-01T06:43:38.482Z,94.04
2018-04-01T06:44:38.292Z,94.23
2018-04-01T06:45:38.192Z,94.23
2018-04-01T06:46:38.099Z,93.75
2018-04-01T06:47:38.036Z,94.23
2018-04-01T06:48:37.957Z,93.75
2018-04-01T06:49:37.814Z,93.84
2018-04-01T06:50:37.803Z,94.23
2018-04-01T06:51:37.615Z,94.42
2018-04-01T06:52:37.546Z,93.75
2018-04-01T06:53:37.420Z,94.32
2018-04-01T06:54:37.324Z,93.65
2018-04-01T06:55:37.227Z,93.84
2018-04-01T06:56:37.136Z,94.32
2018-04-01T06:57:37.164Z,94.23
2018-04-01T06:58:36.939Z,94.13
2018-04-01T06:59:36.840Z,94.13
2018-04-01T07:00:36.743Z,94.13
2018-04-01T07:01:36.655Z,94.32
2018-04-01T07:02:36.651Z,93.75
2018-04-01T07:03:36.453Z,94.13
2018-04-01T07:04:36.447Z,94.13
2018-04-01T07:05:36.259Z,93.94
2018-04-01T07:06:36.164Z,94.04
2018-04-01T07:07:36.102Z,94.23
2018-04-01T07:08:35.975Z,94.23
2018-04-01T07:09:35.871Z,94.04
2018-04-01T07:10:35.774Z,94.32
2018-04-01T07:11:35.678Z,94.13
2018-04-01T07:12:35.615Z,93.75
2018-04-01T07:13:35.484Z,93.94
2018-04-01T07:14:35.389Z,93.84
2018-04-01T07:15:35.294Z,94.04
2018-04-01T07:16:35.195Z,94.04
2018-04-01T07:17:35.132Z,94.04
2018-04-01T07:18:35.095Z,93.94
2018-04-01T07:19:34.907Z,94.13
2018-04-01T07:20:34.805Z,93.56
2018-04-01T07:21:34.711Z,94.04
2018-04-01T07:22:34.618Z,94.23
2018-04-01T07:23:34.550Z,94.23
2018-04-01T07:24:34.424Z,94.32
2018-04-01T07:25:34.323Z,94.32
2018-04-01T07:26:34.231Z,93.94
2018-04-01T07:27:34.136Z,94.04
2018-04-01T07:28:34.064Z,94.13
2018-04-01T07:29:33.936Z,94.04
2018-04-01T07:30:33.840Z,94.04
2018-04-01T07:31:33.745Z,93.75
2018-04-01T07:32:33.650Z,93.65
2018-04-01T07:33:33.581Z,94.13
2018-04-01T07:34:33.452Z,93.65
2018-04-01T07:35:33.357Z,93.65
2018-04-01T07:36:33.257Z,93.94
2018-04-01T07:37:33.164Z,93.84
2018-04-01T07:38:33.102Z,93.56
2018-04-01T07:39:32.968Z,93.65
2018-04-01T07:40:32.869Z,93.65
2018-04-01T07:41:32.777Z,93.65
2018-04-01T07:42:32.679Z,93.56
2018-04-01T07:43:32.615Z,93.94
2018-04-01T07:44:32.485Z,93.84
2018-04-01T07:45:32.387Z,94.04
2018-04-01T07:46:32.289Z,94.23
2018-04-01T07:47:32.197Z,94.04
2018-04-01T07:48:32.128Z,94.04
2018-04-01T07:49:31.998Z,94.04
2018-04-01T07:50:31.905Z,93.65
2018-04-01T07:51:31.807Z,93.84
2018-04-01T07:52:31.710Z,93.56
2018-04-01T07:53:31.643Z,93.65
2018-04-01T07:54:31.516Z,93.51
2018-04-01T07:55:31.422Z,93.61
2018-04-01T07:56:31.321Z,93.89
2018-04-01T07:57:31.224Z,93.94
2018-04-01T07:58:31.162Z,93.70
2018-04-01T07:59:31.031Z,93.51
2018-04-01T08:00:30.937Z,93.51
2018-04-01T08:01:30.838Z,93.89
2018-04-01T08:02:30.742Z,93.61
2018-04-01T08:03:30.678Z,93.51
2018-04-01T08:04:30.550Z,93.89
2018-04-01T08:05:30.450Z,94.27
2018-04-01T08:06:30.359Z,93.61
2018-04-01T08:07:30.258Z,94.08
2018-04-01T08:08:30.192Z,93.89
2018-04-01T08:09:30.097Z,93.70
2018-04-01T08:10:29.970Z,94.08
2018-04-01T08:11:29.873Z,94.18
2018-04-01T08:12:29.776Z,93.51
2018-04-01T08:13:29.709Z,93.89
2018-04-01T08:14:29.584Z,94.27
2018-04-01T08:15:29.486Z,93.61
2018-04-01T08:16:29.390Z,93.80
2018-04-01T08:17:29.293Z,94.18
2018-04-01T08:18:29.226Z,93.42
2018-04-01T08:19:29.101Z,94.18
2018-04-01T08:20:29.003Z,93.89
2018-04-01T08:21:28.907Z,93.80
2018-04-01T08:22:28.811Z,93.70
2018-04-01T08:23:28.746Z,93.89
2018-04-01T08:24:28.614Z,94.18
2018-04-01T08:25:28.528Z,93.61
2018-04-01T08:26:28.425Z,93.80
2018-04-01T08:27:28.331Z,93.70
2018-04-01T08:28:28.264Z,94.08
2018-04-01T08:29:28.135Z,94.27
2018-04-01T08:30:28.045Z,94.18
2018-04-01T08:31:27.943Z,94.08
2018-04-01T08:32:27.845Z,94.27
2018-04-01T08:33:27.780Z,93.84
2018-04-01T08:34:27.654Z,94.04
2018-04-01T08:35:27.557Z,94.42
2018-04-01T08:36:27.462Z,94.23
2018-04-01T08:37:27.364Z,94.04
2018-04-01T08:38:27.300Z,94.23
2018-04-01T08:39:27.173Z,95.17
2018-04-01T08:40:27.075Z,94.23
2018-04-01T08:41:27.073Z,94.13
2018-04-01T08:42:26.887Z,94.51
2018-04-01T08:43:26.821Z,94.23
2018-04-01T08:44:26.688Z,94.51
2018-04-01T08:45:26.595Z,94.23
2018-04-01T08:46:26.498Z,94.13
2018-04-01T08:47:26.402Z,94.51
2018-04-01T08:48:26.370Z,94.51
2018-04-01T08:49:26.238Z,94.79
2018-04-01T08:50:26.113Z,94.60
2018-04-01T08:51:26.022Z,94.89
2018-04-01T08:52:25.919Z,94.70
2018-04-01T08:53:25.825Z,94.60
2018-04-01T08:54:25.758Z,94.98
2018-04-01T08:55:25.733Z,94.60
2018-04-01T08:56:25.536Z,94.46
2018-04-01T08:57:25.437Z,94.65
2018-04-01T08:58:25.346Z,94.65
2018-04-01T08:59:25.359Z,95.22
2018-04-01T09:00:25.148Z,94.46
2018-04-01T09:01:25.051Z,94.93
2018-04-01T09:02:25.054Z,95.22
2018-04-01T09:03:24.866Z,94.74
2018-04-01T09:04:24.796Z,94.46
2018-04-01T09:05:24.668Z,94.74
2018-04-01T09:06:24.574Z,94.65
2018-04-01T09:07:24.476Z,93.89
2018-04-01T09:08:24.380Z,93.99
2018-04-01T09:09:24.411Z,95.03
2018-04-01T09:10:24.193Z,94.08
2018-04-01T09:11:24.095Z,93.80
2018-04-01T09:12:24.002Z,94.46
2018-04-01T09:13:23.902Z,94.08
2018-04-01T09:14:23.836Z,94.56
2018-04-01T09:15:23.712Z,94.08
2018-04-01T09:16:23.708Z,94.74
2018-04-01T09:17:23.519Z,93.89
2018-04-01T09:18:23.423Z,94.08
2018-04-01T09:19:23.362Z,93.70
2018-04-01T09:20:23.233Z,93.70
2018-04-01T09:21:23.135Z,94.08
2018-04-01T09:22:23.044Z,94.18
2018-04-01T09:23:23.041Z,94.04
2018-04-01T09:24:22.877Z,93.94
2018-04-01T09:25:22.753Z,94.42
2018-04-01T09:26:22.659Z,93.75
2018-04-01T09:27:22.575Z,93.27
2018-04-01T09:28:22.465Z,93.65
2018-04-01T09:29:22.401Z,93.46
2018-04-01T09:30:22.371Z,93.37
2018-04-01T09:31:22.176Z,93.65
2018-04-01T09:32:22.085Z,92.90
2018-04-01T09:33:21.990Z,93.27
2018-04-01T09:34:21.920Z,93.46
2018-04-01T09:35:21.792Z,93.46
2018-04-01T09:36:21.697Z,94.13
2018-04-01T09:37:21.702Z,93.08
2018-04-01T09:38:21.506Z,93.94
2018-04-01T09:39:21.446Z,93.65
2018-04-01T09:40:21.312Z,93.75
2018-04-01T09:41:21.215Z,93.08
2018-04-01T09:42:21.120Z,93.37
2018-04-01T09:43:21.025Z,94.51
2018-04-01T09:44:21.052Z,93.27
2018-04-01T09:45:20.829Z,93.37
2018-04-01T09:46:20.735Z,94.23
2018-04-01T09:47:20.640Z,93.89
2018-04-01T09:48:20.545Z,94.37
2018-04-01T09:49:20.475Z,94.46
2018-04-01T09:50:20.471Z,93.99
2018-04-01T09:51:20.254Z,94.46
2018-04-01T09:52:20.158Z,94.46
2018-04-01T09:53:20.060Z,94.18
2018-04-01T09:54:19.999Z,93.80
2018-04-01T09:55:19.869Z,93.89
2018-04-01T09:56:19.796Z,94.56
2018-04-01T09:57:19.675Z,93.61
2018-04-01T09:58:19.673Z,94.74
2018-04-01T09:59:19.517Z,94.74
2018-04-01T10:00:19.388Z,94.46
2018-04-01T10:01:19.294Z,94.84
2018-04-01T10:02:19.196Z,94.74
2018-04-01T10:03:19.103Z,94.84
2018-04-01T10:04:19.038Z,94.74
2018-04-01T10:05:18.909Z,94.65
2018-04-01T10:06:18.814Z,95.55
2018-04-01T10:07:18.717Z,94.32
2018-04-01T10:08:18.620Z,95.70
2018-04-01T10:09:18.524Z,94.27
2018-04-01T10:10:18.754Z,94.79
2018-04-01T10:11:18.339Z,92.80
2018-04-01T10:12:18.237Z,92.90
2018-04-01T10:13:18.140Z,91.47
2018-04-01T10:14:18.048Z,91.47
2018-04-01T10:15:17.985Z,92.61
2018-04-01T10:16:17.857Z,91.28
2018-04-01T10:17:17.761Z,92.71
2018-04-01T10:18:17.670Z,91.85
2018-04-01T10:19:17.580Z,90.99
2018-04-01T10:20:17.542Z,91.85
2018-04-01T10:21:17.385Z,91.61
2018-04-01T10:22:17.291Z,92.56
2018-04-01T10:23:17.198Z,92.28
2018-04-01T10:24:17.105Z,92.56
2018-04-01T10:25:17.040Z,92.85
2018-04-01T10:26:16.915Z,92.85
2018-04-01T10:27:16.824Z,92.56
2018-04-01T10:28:16.728Z,92.85
2018-04-01T10:29:16.632Z,93.41
2018-04-01T10:30:16.569Z,92.75
2018-04-01T10:31:16.444Z,92.94
2018-04-01T10:32:16.351Z,93.04
2018-04-01T10:33:16.259Z,92.37
2018-04-01T10:34:16.160Z,93.04
2018-04-01T10:35:16.097Z,92.66
2018-04-01T10:36:15.973Z,92.47
2018-04-01T10:37:15.879Z,91.99
2018-04-01T10:38:15.785Z,91.89
2018-04-01T10:39:15.690Z,92.47
2018-04-01T10:40:15.624Z,91.89
2018-04-01T10:41:15.504Z,92.28
2018-04-01T10:42:15.408Z,91.33
2018-04-01T10:43:15.316Z,91.99
2018-04-01T10:44:15.218Z,92.09
2018-04-01T10:45:15.158Z,91.52
2018-04-01T10:46:15.029Z,91.61
2018-04-01T10:47:14.936Z,92.04
2018-04-01T10:48:14.840Z,91.66
2018-04-01T10:49:14.747Z,90.90
2018-04-01T10:50:14.684Z,91.04
2018-04-01T10:51:14.560Z,90.42
2018-04-01T10:52:14.465Z,90.80
2018-04-01T10:53:14.374Z,89.47
2018-04-01T10:54:14.277Z,89.47
2018-04-01T10:55:14.215Z,90.14
2018-04-01T10:56:14.091Z,89.99
2018-04-01T10:57:14.003Z,89.85
2018-04-01T10:58:13.902Z,89.47
2018-04-01T10:59:13.811Z,90.28
2018-04-01T11:00:13.752Z,90.03
2018-04-01T11:01:13.624Z,89.08
2018-04-01T11:02:13.534Z,88.42
2018-04-01T11:03:13.442Z,88.18
2018-04-01T11:04:13.347Z,89.47
2018-04-01T11:05:13.328Z,89.61
2018-04-01T11:06:13.165Z,90.00
2018-04-01T11:07:13.075Z,90.52
2018-04-01T11:08:12.981Z,90.80
2018-04-01T11:09:12.892Z,91.56
2018-04-01T11:10:12.836Z,91.33
2018-04-01T11:11:12.710Z,93.23
2018-04-01T11:12:12.612Z,92.56
2018-04-01T11:13:12.523Z,92.61
2018-04-01T11:14:12.428Z,92.99
2018-04-01T11:15:12.339Z,92.52
2018-04-01T11:16:12.279Z,92.38
2018-04-01T11:17:12.152Z,92.28
2018-04-01T11:18:12.061Z,93.13
2018-04-01T11:19:11.967Z,92.38
2018-04-01T11:20:11.877Z,92.94
2018-04-01T11:21:11.813Z,93.51
2018-04-01T11:22:11.686Z,93.13
2018-04-01T11:23:11.594Z,93.56
2018-04-01T11:24:11.503Z,92.42
2018-04-01T11:25:11.414Z,93.27
2018-04-01T11:26:11.346Z,93.27
2018-04-01T11:27:11.223Z,92.99
2018-04-01T11:28:11.240Z,93.56
2018-04-01T11:29:11.035Z,92.99
2018-04-01T11:30:10.944Z,92.99
2018-04-01T11:31:10.889Z,92.90
2018-04-01T11:32:10.754Z,92.61
2018-04-01T11:33:10.659Z,93.56
2018-04-01T11:34:10.564Z,93.18
2018-04-01T11:35:10.564Z,92.71
2018-04-01T11:36:10.414Z,92.66
2018-04-01T11:37:10.281Z,93.13
2018-04-01T11:38:10.191Z,92.57
2018-04-01T11:39:10.093Z,93.32
2018-04-01T11:40:09.995Z,92.76
2018-04-01T11:41:09.932Z,92.19
2018-04-01T11:42:09.808Z,93.32
2018-04-01T11:43:09.712Z,92.85
2018-04-01T11:44:09.616Z,93.32
2018-04-01T11:45:09.524Z,93.23
2018-04-01T11:46:09.461Z,92.94
2018-04-01T11:47:09.344Z,93.04
2018-04-01T11:48:09.241Z,93.13
2018-04-01T11:49:09.142Z,93.04
2018-04-01T11:50:09.052Z,93.37
2018-04-01T11:51:08.984Z,93.08
2018-04-01T11:52:08.853Z,93.08
2018-04-01T11:53:08.761Z,92.61
2018-04-01T11:54:08.666Z,93.56
2018-04-01T11:55:08.569Z,92.99
2018-04-01T11:56:08.503Z,93.08
2018-04-01T11:57:08.379Z,93.23
2018-04-01T11:58:08.283Z,93.41
2018-04-01T11:59:08.185Z,92.38
2018-04-01T12:00:08.091Z,92.57
2018-04-01T12:01:08.029Z,93.41
2018-04-01T12:02:07.901Z,93.80
2018-04-01T12:03:07.808Z,93.41
2018-04-01T12:04:07.709Z,93.94
2018-04-01T12:05:07.613Z,93.46
2018-04-01T12:06:07.553Z,93.84
2018-04-01T12:07:07.424Z,92.80
2018-04-01T12:08:07.331Z,93.99
2018-04-01T12:09:07.235Z,93.23
2018-04-01T12:10:07.144Z,93.23
2018-04-01T12:11:07.078Z,93.61
2018-04-01T12:12:06.951Z,92.85
2018-04-01T12:13:06.856Z,93.13
2018-04-01T12:14:06.762Z,92.80
2018-04-01T12:15:06.666Z,92.42
2018-04-01T12:16:06.606Z,92.61
2018-04-01T12:17:06.474Z,93.65
2018-04-01T12:18:06.495Z,92.80
2018-04-01T12:19:06.290Z,93.46
2018-04-01T12:20:06.195Z,93.51
2018-04-01T12:21:06.129Z,92.94
2018-04-01T12:22:06.001Z,92.94
2018-04-01T12:23:05.905Z,93.04
2018-04-01T12:24:05.812Z,93.42
2018-04-01T12:25:05.810Z,93.13
2018-04-01T12:26:05.648Z,93.23
2018-04-01T12:27:05.523Z,93.32
2018-04-01T12:28:05.433Z,93.32
2018-04-01T12:29:05.335Z,92.94
2018-04-01T12:30:05.244Z,93.51
2018-04-01T12:31:05.173Z,92.85
2018-04-01T12:32:05.139Z,93.42
2018-04-01T12:33:04.953Z,93.51
2018-04-01T12:34:04.856Z,93.61
2018-04-01T12:35:04.759Z,93.70
2018-04-01T12:36:04.693Z,93.32
2018-04-01T12:37:04.565Z,93.51
2018-04-01T12:38:04.473Z,93.61
2018-04-01T12:39:04.471Z,93.04
2018-04-01T12:40:04.277Z,93.23
2018-04-01T12:41:04.212Z,93.04
2018-04-01T12:42:04.086Z,93.04
2018-04-01T12:43:03.990Z,93.61
2018-04-01T12:44:03.893Z,93.23
2018-04-01T12:45:03.795Z,92.85
2018-04-01T12:46:03.801Z,93.37
2018-04-01T12:47:03.635Z,93.08
2018-04-01T12:48:03.510Z,93.08
2018-04-01T12:49:03.413Z,92.90
2018-04-01T12:50:03.324Z,93.56
2018-04-01T12:51:03.222Z,93.18